createdAt,value
2019-05-14T00:01:17.346Z,1.60
2019-05-14T00:05:23.619Z,1.50
2019-05-14T00:09:27.967Z,1.30
2019-05-14T00:13:32.369Z,1.70
2019-05-14T00:17:36.649Z,1.40
2019-05-14T00:21:42.363Z,1.30
2019-05-14T00:25:46.845Z,1.80
2019-05-14T00:29:51.773Z,1.47
2019-05-14T00:33:56.216Z,1.30
2019-05-14T00:38:01.281Z,1.40
2019-05-14T00:42:05.815Z,1.13
2019-05-14T00:46:11.805Z,1.67
2019-05-14T00:50:16.492Z,1.50
2019-05-14T00:54:21.529Z,1.47
2019-05-14T00:58:25.964Z,1.70
2019-05-14T01:02:31.876Z,1.40
2019-05-14T01:06:36.301Z,1.50
2019-05-14T01:10:41.757Z,1.33
2019-05-14T01:14:46.993Z,1.37
2019-05-14T01:18:51.460Z,1.47
2019-05-14T01:22:55.720Z,1.33
2019-05-14T01:27:01.607Z,1.33
2019-05-14T01:31:06.221Z,1.40
2019-05-14T01:35:13.566Z,1.20
2019-05-14T01:39:23.909Z,1.20
2019-05-14T01:43:28.513Z,1.30
2019-05-14T01:47:35.455Z,1.40
2019-05-14T01:51:42.127Z,1.27
2019-05-14T01:55:45.549Z,1.07
2019-05-14T01:59:51.639Z,1.30
2019-05-14T02:03:55.743Z,1.13
2019-05-14T02:08:01.759Z,1.10
2019-05-14T02:12:05.978Z,1.17
2019-05-14T02:16:13.067Z,1.20
2019-05-14T02:20:16.346Z,0.97
2019-05-14T02:24:21.780Z,1.20
2019-05-14T02:28:26.274Z,1.13
2019-05-14T02:32:30.522Z,1.27
2019-05-14T02:36:34.818Z,1.07
2019-05-14T02:40:40.399Z,1.30
2019-05-14T02:44:44.894Z,1.17
2019-05-14T02:48:49.366Z,1.30
2019-05-14T02:52:53.751Z,0.90
2019-05-14T02:56:59.896Z,1.30
2019-05-14T03:01:03.956Z,1.03
2019-05-14T03:05:09.812Z,1.50
2019-05-14T03:09:14.435Z,1.10
2019-05-14T03:13:20.332Z,1.17
2019-05-14T03:17:24.822Z,1.10
2019-05-14T03:21:30.444Z,1.20
2019-05-14T03:25:34.873Z,1.20
2019-05-14T03:29:40.203Z,1.30
2019-05-14T03:33:45.134Z,1.30
2019-05-14T03:37:50.030Z,1.10
2019-05-14T03:41:54.383Z,1.27
2019-05-14T03:45:59.524Z,1.10
2019-05-14T03:50:04.082Z,1.23
2019-05-14T03:54:12.719Z,1.40
2019-05-14T03:58:14.973Z,1.30
2019-05-14T04:02:20.108Z,1.30
2019-05-14T04:06:30.054Z,1.53
2019-05-14T04:10:34.973Z,1.03
2019-05-14T04:14:43.137Z,1.13
2019-05-14T04:18:50.432Z,1.30
2019-05-14T04:23:00.069Z,1.20
2019-05-14T04:27:09.284Z,1.40
2019-05-14T04:31:13.428Z,1.20
2019-05-14T04:35:20.120Z,1.57
2019-05-14T04:39:23.837Z,1.43
2019-05-14T04:43:29.364Z,1.47
2019-05-14T04:47:37.429Z,1.53
2019-05-14T04:51:39.985Z,1.33
2019-05-14T04:55:44.243Z,1.33
2019-05-14T04:59:49.405Z,1.20
2019-05-14T05:03:53.896Z,1.40
2019-05-14T05:07:59.663Z,1.10
2019-05-14T05:12:04.119Z,1.23
2019-05-14T05:16:10.010Z,1.60
2019-05-14T05:20:14.718Z,1.40
2019-05-14T05:24:19.019Z,1.17
2019-05-14T05:28:23.351Z,1.33
2019-05-14T05:32:28.584Z,1.37
2019-05-14T05:36:33.020Z,1.40
2019-05-14T05:40:39.149Z,1.33
2019-05-14T05:44:43.188Z,1.90
2019-05-14T05:48:48.231Z,1.60
2019-05-14T05:52:53.824Z,1.50
2019-05-14T05:56:58.544Z,1.40
2019-05-14T06:01:02.771Z,1.40
2019-05-14T06:05:08.058Z,1.13
2019-05-14T06:09:12.484Z,1.30
2019-05-14T06:13:18.283Z,1.20
2019-05-14T06:17:22.670Z,1.20
2019-05-14T06:21:29.225Z,1.30
2019-05-14T06:25:32.824Z,1.20
2019-05-14T06:29:38.299Z,1.40
2019-05-14T06:33:42.748Z,1.30
2019-05-14T06:37:49.040Z,1.40
2019-05-14T06:41:52.909Z,1.50
2019-05-14T06:45:58.553Z,1.43
2019-05-14T06:50:03.462Z,1.30
2019-05-14T06:54:09.236Z,1.60
2019-05-14T06:58:13.551Z,1.23
2019-05-14T07:02:19.412Z,1.73
2019-05-14T07:06:23.891Z,1.70
2019-05-14T07:10:28.813Z,1.53
2019-05-14T07:14:33.076Z,1.53
2019-05-14T07:18:46.543Z,1.27
2019-05-14T07:22:43.303Z,1.60
2019-05-14T07:26:49.430Z,1.30
2019-05-14T07:30:53.560Z,1.60
2019-05-14T07:34:59.620Z,1.40
2019-05-14T07:39:09.066Z,1.33
2019-05-14T07:43:11.543Z,1.30
2019-05-14T07:47:15.785Z,1.57
2019-05-14T07:51:20.319Z,1.40
2019-05-14T07:55:24.932Z,1.30
2019-05-14T07:59:29.356Z,1.20
2019-05-14T08:03:33.577Z,1.70
2019-05-14T08:07:38.787Z,1.23
2019-05-14T08:11:43.267Z,1.47
2019-05-14T08:15:49.021Z,1.33
2019-05-14T08:19:53.451Z,1.50
2019-05-14T08:23:59.243Z,1.50
2019-05-14T08:28:03.648Z,1.50
2019-05-14T08:32:09.012Z,1.67
2019-05-14T08:36:13.384Z,1.33
2019-05-14T08:40:20.874Z,1.13
2019-05-14T08:44:23.769Z,1.13
2019-05-14T08:48:29.587Z,0.97
2019-05-14T08:52:34.395Z,0.80
2019-05-14T08:56:39.078Z,0.93
2019-05-14T09:00:43.358Z,1.10
2019-05-14T09:04:53.810Z,0.60
2019-05-14T09:08:53.644Z,0.90
2019-05-14T09:12:58.399Z,0.70
2019-05-14T09:17:02.917Z,0.63
2019-05-14T09:21:08.686Z,0.70
2019-05-14T09:25:14.135Z,0.80
2019-05-14T09:29:25.507Z,0.80
2019-05-14T09:33:25.315Z,0.80
2019-05-14T09:37:29.523Z,0.90
2019-05-14T09:41:33.830Z,0.80
2019-05-14T09:45:38.845Z,0.80
2019-05-14T09:49:43.238Z,0.80
2019-05-14T09:53:48.870Z,0.73
2019-05-14T09:57:53.465Z,0.80
2019-05-14T10:01:58.588Z,0.97
2019-05-14T10:06:03.056Z,1.00
2019-05-14T10:10:08.154Z,0.87
2019-05-14T10:14:12.428Z,1.03
2019-05-14T10:18:18.828Z,0.87
2019-05-14T10:22:22.652Z,0.87
2019-05-14T10:26:28.874Z,0.83
2019-05-14T10:30:33.009Z,1.10
2019-05-14T10:34:37.595Z,1.00
2019-05-14T10:38:41.822Z,1.00
2019-05-14T10:42:49.242Z,1.00
2019-05-14T10:46:52.065Z,1.03
2019-05-14T10:51:02.870Z,1.00
2019-05-14T10:55:02.587Z,1.10
2019-05-14T10:59:09.314Z,1.00
2019-05-14T11:03:12.771Z,1.00
2019-05-14T11:07:18.597Z,1.00
2019-05-14T11:11:23.078Z,1.00
2019-05-14T11:15:28.497Z,0.93
2019-05-14T11:19:32.835Z,1.33
2019-05-14T11:23:38.685Z,1.07
2019-05-14T11:27:43.073Z,1.00
2019-05-14T11:31:48.451Z,1.00
2019-05-14T11:35:52.989Z,1.10
2019-05-14T11:39:58.123Z,0.80
2019-05-14T11:44:02.484Z,1.07
2019-05-14T11:48:08.802Z,1.10
2019-05-14T11:52:12.878Z,1.30
2019-05-14T11:56:19.454Z,1.10
2019-05-14T12:00:25.956Z,1.20
2019-05-14T12:04:29.742Z,1.23
2019-05-14T12:08:33.986Z,1.63
2019-05-14T12:12:38.271Z,1.50
2019-05-14T12:16:42.595Z,1.30
2019-05-14T12:20:49.697Z,1.30
2019-05-14T12:24:52.789Z,1.20
2019-05-14T12:28:59.424Z,1.27
2019-05-14T12:33:03.031Z,1.30
2019-05-14T12:37:09.153Z,1.10
2019-05-14T12:41:13.639Z,1.10
2019-05-14T12:45:19.046Z,1.00
2019-05-14T12:49:23.609Z,1.00
2019-05-14T12:53:28.746Z,1.40
2019-05-14T12:57:33.161Z,1.30
2019-05-14T13:01:37.920Z,0.90
2019-05-14T13:05:42.160Z,1.33
2019-05-14T13:09:48.910Z,1.20
2019-05-14T13:13:52.618Z,1.30
2019-05-14T13:17:57.067Z,1.30
2019-05-14T13:22:13.200Z,1.27
2019-05-14T13:26:10.502Z,1.20
2019-05-14T13:30:14.267Z,0.97
2019-05-14T13:34:19.485Z,1.00
2019-05-14T13:38:24.009Z,1.33
2019-05-14T13:42:29.529Z,1.03
2019-05-14T13:46:34.089Z,1.20
2019-05-14T13:50:40.003Z,1.23
2019-05-14T13:54:44.301Z,1.40
2019-05-14T13:58:49.107Z,1.27
2019-05-14T14:02:53.381Z,1.20
2019-05-14T14:06:59.087Z,1.40
2019-05-14T14:11:04.423Z,1.50
2019-05-14T14:15:09.907Z,1.30
2019-05-14T14:19:14.227Z,1.40
2019-05-14T14:23:26.413Z,1.13
2019-05-14T14:27:24.577Z,1.20
2019-05-14T14:31:28.883Z,1.63
2019-05-14T14:35:33.481Z,1.10
2019-05-14T14:39:37.736Z,1.33
2019-05-14T14:43:44.102Z,1.50
2019-05-14T14:47:49.735Z,1.50
2019-05-14T14:51:54.043Z,1.57
2019-05-14T14:56:00.358Z,1.30
2019-05-14T15:00:04.902Z,1.30
2019-05-14T15:04:13.527Z,1.30
2019-05-14T15:08:15.141Z,1.50
2019-05-14T15:12:19.990Z,1.67
2019-05-14T15:16:24.422Z,1.50
2019-05-14T15:20:29.144Z,1.40
2019-05-14T15:24:33.346Z,1.50
2019-05-14T15:28:38.696Z,1.50
2019-05-14T15:32:43.173Z,1.40
2019-05-14T15:36:49.326Z,1.80
2019-05-14T15:40:53.487Z,1.50
2019-05-14T15:44:59.879Z,1.53
2019-05-14T15:49:03.686Z,1.67
2019-05-14T15:53:10.878Z,1.70
2019-05-14T15:57:13.985Z,2.43
2019-05-14T16:01:19.351Z,1.83
2019-05-14T16:05:23.709Z,2.40
2019-05-14T16:09:28.915Z,2.33
2019-05-14T16:13:33.559Z,2.40
2019-05-14T16:17:48.129Z,2.40
2019-05-14T16:21:43.991Z,2.77
2019-05-14T16:25:48.469Z,2.37
2019-05-14T16:29:52.756Z,2.40
2019-05-14T16:33:57.032Z,2.27
2019-05-14T16:38:01.267Z,2.60
2019-05-14T16:42:05.623Z,2.50
2019-05-14T16:46:10.253Z,2.43
2019-05-14T16:50:15.012Z,2.50
2019-05-14T16:54:19.246Z,2.60
2019-05-14T16:58:23.589Z,2.43
2019-05-14T17:02:29.584Z,2.50
2019-05-14T17:06:34.950Z,2.63
2019-05-14T17:10:39.298Z,2.40
2019-05-14T17:14:43.760Z,2.67
2019-05-14T17:18:49.011Z,2.67
2019-05-14T17:22:53.624Z,2.97
2019-05-14T17:26:58.343Z,2.60
2019-05-14T17:31:03.057Z,3.07
2019-05-14T17:35:10.680Z,2.77
2019-05-14T17:39:14.987Z,2.93
2019-05-14T17:43:22.842Z,2.47
2019-05-14T17:47:25.300Z,2.37
2019-05-14T17:51:29.648Z,2.87
2019-05-14T17:55:46.396Z,2.67
2019-05-14T17:59:40.049Z,2.77
2019-05-14T18:08:39.772Z,2.80
2019-05-14T18:12:44.044Z,2.80
2019-05-14T18:16:50.684Z,2.93
2019-05-14T18:20:54.924Z,2.90
2019-05-14T18:24:59.572Z,3.10
2019-05-14T18:29:04.611Z,3.10
2019-05-14T18:33:09.548Z,3.10
2019-05-14T18:37:14.079Z,3.33
2019-05-14T18:41:18.974Z,3.50
2019-05-14T18:45:23.983Z,3.17
2019-05-14T18:49:28.857Z,2.77
2019-05-14T18:53:33.476Z,2.80
2019-05-14T18:57:38.509Z,2.60
2019-05-14T19:01:42.949Z,2.77
2019-05-14T19:05:48.264Z,2.70
2019-05-14T19:09:52.978Z,2.60
2019-05-14T19:13:57.246Z,2.63
2019-05-14T19:18:02.769Z,2.60
2019-05-14T19:22:07.786Z,2.70
2019-05-14T19:26:12.704Z,2.80
2019-05-14T19:30:19.129Z,2.50
2019-05-14T19:34:25.155Z,2.50
2019-05-14T19:38:29.425Z,2.00
2019-05-14T19:42:34.049Z,2.50
2019-05-14T19:46:38.759Z,2.37
2019-05-14T19:50:43.326Z,2.30
2019-05-14T19:54:48.973Z,2.33
2019-05-14T19:58:53.307Z,2.07
2019-05-14T20:02:58.248Z,2.20
2019-05-14T20:07:02.527Z,1.90
2019-05-14T20:11:06.778Z,1.90
2019-05-14T20:15:11.113Z,2.40
2019-05-14T20:19:15.738Z,2.27
2019-05-14T20:23:20.092Z,2.00
2019-05-14T20:27:24.319Z,2.60
2019-05-14T20:31:29.683Z,2.23
2019-05-14T20:35:34.988Z,1.80
2019-05-14T20:39:39.402Z,2.10
2019-05-14T20:43:43.931Z,2.67
2019-05-14T20:47:48.192Z,1.90
2019-05-14T20:51:52.433Z,2.57
2019-05-14T20:55:58.819Z,2.30
2019-05-14T21:00:02.700Z,2.10
2019-05-14T21:04:09.031Z,2.40
2019-05-14T21:08:13.852Z,1.87
2019-05-14T21:12:18.886Z,2.60
2019-05-14T21:16:23.327Z,1.80
2019-05-14T21:20:28.518Z,2.10
2019-05-14T21:24:32.720Z,2.00
2019-05-14T21:28:39.227Z,2.00
2019-05-14T21:32:43.026Z,2.20
2019-05-14T21:36:47.366Z,2.30
2019-05-14T21:40:51.936Z,1.70
2019-05-14T21:44:58.423Z,1.97
2019-05-14T21:49:02.296Z,2.00
2019-05-14T21:53:08.451Z,1.80
2019-05-14T21:57:13.272Z,1.70
2019-05-14T22:01:18.811Z,1.70
2019-05-14T22:05:23.189Z,1.73
2019-05-14T22:09:28.478Z,1.60
2019-05-14T22:13:32.834Z,1.60
2019-05-14T22:17:38.242Z,1.77
2019-05-14T22:21:42.616Z,1.83
2019-05-14T22:25:48.714Z,1.50
2019-05-14T22:29:53.028Z,1.63
2019-05-14T22:33:58.266Z,1.70
2019-05-14T22:38:02.588Z,1.50
2019-05-14T22:42:09.234Z,2.03
2019-05-14T22:46:18.057Z,1.40
2019-05-14T22:50:22.178Z,1.77
2019-05-14T22:54:28.591Z,1.70
2019-05-14T22:58:32.340Z,1.80
2019-05-14T23:02:38.139Z,1.83
2019-05-14T23:06:42.716Z,1.57
2019-05-14T23:10:49.137Z,1.93
2019-05-14T23:14:53.493Z,2.00
2019-05-14T23:18:58.313Z,2.00
2019-05-14T23:23:02.991Z,1.97
2019-05-14T23:27:08.266Z,2.07
2019-05-14T23:31:12.783Z,2.27
2019-05-14T23:35:18.716Z,1.90
2019-05-14T23:39:23.891Z,2.00
2019-05-14T23:43:28.860Z,1.90
2019-05-14T23:47:33.251Z,2.37
2019-05-14T23:51:38.566Z,2.00
2019-05-14T23:55:42.985Z,2.23
2019-05-14T23:59:48.291Z,2.00
